sensor_id;sensor_type;location;lat;lon;timestamp;P1;durP1;ratioP1;P2;durP2;ratioP2
11677;SDS011;5895;41.950;24.372;2022-12-15T00:01:29;0.93;;;0.93;;
11677;SDS011;5895;41.950;24.372;2022-12-15T00:04:14;2.95;;;0.98;;
11677;SDS011;5895;41.950;24.372;2022-12-15T00:06:58;29.65;;;2.25;;
11677;SDS011;5895;41.950;24.372;2022-12-15T00:09:43;0.98;;;0.90;;
11677;SDS011;5895;41.950;24.372;2022-12-15T00:12:27;21.55;;;1.83;;
11677;SDS011;5895;41.950;24.372;2022-12-15T00:15:11;19.88;;;1.50;;
11677;SDS011;5895;41.950;24.372;2022-12-15T00:17:57;0.90;;;0.90;;
11677;SDS011;5895;41.950;24.372;2022-12-15T00:20:47;81.35;;;3.80;;
11677;SDS011;5895;41.950;24.372;2022-12-15T00:23:31;1.60;;;0.90;;
11677;SDS011;5895;41.950;24.372;2022-12-15T00:26:16;16.13;;;1.42;;
11677;SDS011;5895;41.950;24.372;2022-12-15T00:29:00;1.25;;;0.90;;
11677;SDS011;5895;41.950;24.372;2022-12-15T00:31:45;2.10;;;0.93;;
11677;SDS011;5895;41.950;24.372;2022-12-15T00:34:31;6.80;;;1.00;;
11677;SDS011;5895;41.950;24.372;2022-12-15T00:37:16;1.00;;;0.90;;
11677;SDS011;5895;41.950;24.372;2022-12-15T00:40:00;0.80;;;0.80;;
11677;SDS011;5895;41.950;24.372;2022-12-15T00:42:29;0.88;;;0.88;;
11677;SDS011;5895;41.950;24.372;2022-12-15T00:44:57;0.80;;;0.80;;
11677;SDS011;5895;41.950;24.372;2022-12-15T00:47:24;2.72;;;0.80;;
11677;SDS011;5895;41.950;24.372;2022-12-15T00:49:52;4.65;;;1.00;;
11677;SDS011;5895;41.950;24.372;2022-12-15T00:52:37;0.80;;;0.80;;
11677;SDS011;5895;41.950;24.372;2022-12-15T00:55:21;0.80;;;0.80;;
11677;SDS011;5895;41.950;24.372;2022-12-15T00:58:05;21.33;;;1.60;;
11677;SDS011;5895;41.950;24.372;2022-12-15T01:00:50;6.50;;;0.95;;
11677;SDS011;5895;41.950;24.372;2022-12-15T01:03:35;19.92;;;1.42;;
11677;SDS011;5895;41.950;24.372;2022-12-15T01:06:21;0.80;;;0.80;;
11677;SDS011;5895;41.950;24.372;2022-12-15T01:09:06;29.35;;;1.88;;
11677;SDS011;5895;41.950;24.372;2022-12-15T01:11:57;54.30;;;2.80;;
11677;SDS011;5895;41.950;24.372;2022-12-15T01:14:41;6.53;;;1.00;;
11677;SDS011;5895;41.950;24.372;2022-12-15T01:17:26;0.80;;;0.80;;
11677;SDS011;5895;41.950;24.372;2022-12-15T01:20:10;4.72;;;1.10;;
11677;SDS011;5895;41.950;24.372;2022-12-15T01:22:45;0.80;;;0.80;;
11677;SDS011;5895;41.950;24.372;2022-12-15T01:25:14;0.88;;;0.88;;
11677;SDS011;5895;41.950;24.372;2022-12-15T01:27:43;0.80;;;0.80;;
11677;SDS011;5895;41.950;24.372;2022-12-15T01:30:12;0.90;;;0.90;;
11677;SDS011;5895;41.950;24.372;2022-12-15T01:32:40;0.80;;;0.80;;
11677;SDS011;5895;41.950;24.372;2022-12-15T01:35:09;0.80;;;0.80;;
11677;SDS011;5895;41.950;24.372;2022-12-15T01:37:37;0.90;;;0.82;;
11677;SDS011;5895;41.950;24.372;2022-12-15T01:40:07;0.88;;;0.88;;
11677;SDS011;5895;41.950;24.372;2022-12-15T01:42:55;1.30;;;0.85;;
11677;SDS011;5895;41.950;24.372;2022-12-15T01:48:24;0.80;;;0.80;;
11677;SDS011;5895;41.950;24.372;2022-12-15T01:51:01;0.90;;;0.90;;
11677;SDS011;5895;41.950;24.372;2022-12-15T01:53:37;1.75;;;0.80;;
11677;SDS011;5895;41.950;24.372;2022-12-15T01:56:10;0.80;;;0.80;;
11677;SDS011;5895;41.950;24.372;2022-12-15T01:58:39;0.90;;;0.90;;
11677;SDS011;5895;41.950;24.372;2022-12-15T02:01:09;0.80;;;0.80;;
11677;SDS011;5895;41.950;24.372;2022-12-15T02:03:36;0.90;;;0.90;;
11677;SDS011;5895;41.950;24.372;2022-12-15T02:06:05;0.90;;;0.90;;
11677;SDS011;5895;41.950;24.372;2022-12-15T02:08:34;0.93;;;0.93;;
11677;SDS011;5895;41.950;24.372;2022-12-15T02:14:10;1.08;;;1.08;;
11677;SDS011;5895;41.950;24.372;2022-12-15T02:16:43;1.35;;;1.10;;
11677;SDS011;5895;41.950;24.372;2022-12-15T02:19:29;1.08;;;1.00;;
11677;SDS011;5895;41.950;24.372;2022-12-15T02:22:22;1.00;;;1.00;;
11677;SDS011;5895;41.950;24.372;2022-12-15T02:25:07;0.90;;;0.90;;
11677;SDS011;5895;41.950;24.372;2022-12-15T02:27:49;1.17;;;1.10;;
11677;SDS011;5895;41.950;24.372;2022-12-15T02:30:29;1.33;;;1.23;;
11677;SDS011;5895;41.950;24.372;2022-12-15T02:33:08;1.25;;;1.10;;
11677;SDS011;5895;41.950;24.372;2022-12-15T02:35:52;1.20;;;1.10;;
11677;SDS011;5895;41.950;24.372;2022-12-15T02:38:31;1.13;;;1.08;;
11677;SDS011;5895;41.950;24.372;2022-12-15T02:41:01;1.40;;;1.30;;
11677;SDS011;5895;41.950;24.372;2022-12-15T02:43:31;1.35;;;1.25;;
11677;SDS011;5895;41.950;24.372;2022-12-15T02:46:07;1.70;;;1.60;;
11677;SDS011;5895;41.950;24.372;2022-12-15T02:48:47;1.33;;;1.23;;
11677;SDS011;5895;41.950;24.372;2022-12-15T02:51:29;1.33;;;1.20;;
11677;SDS011;5895;41.950;24.372;2022-12-15T02:54:15;1.48;;;1.38;;
11677;SDS011;5895;41.950;24.372;2022-12-15T02:56:54;1.40;;;1.30;;
11677;SDS011;5895;41.950;24.372;2022-12-15T02:59:32;1.30;;;1.20;;
11677;SDS011;5895;41.950;24.372;2022-12-15T03:02:08;1.30;;;1.20;;
11677;SDS011;5895;41.950;24.372;2022-12-15T03:04:38;1.42;;;1.33;;
11677;SDS011;5895;41.950;24.372;2022-12-15T03:07:08;1.50;;;1.40;;
11677;SDS011;5895;41.950;24.372;2022-12-15T03:09:36;1.40;;;1.30;;
11677;SDS011;5895;41.950;24.372;2022-12-15T03:12:04;1.65;;;1.05;;
11677;SDS011;5895;41.950;24.372;2022-12-15T03:14:32;1.20;;;1.10;;
11677;SDS011;5895;41.950;24.372;2022-12-15T03:17:00;5.32;;;1.13;;
11677;SDS011;5895;41.950;24.372;2022-12-15T03:19:30;1.00;;;1.00;;
11677;SDS011;5895;41.950;24.372;2022-12-15T03:21:57;1.20;;;1.20;;
11677;SDS011;5895;41.950;24.372;2022-12-15T03:24:25;2.58;;;1.58;;
11677;SDS011;5895;41.950;24.372;2022-12-15T03:26:52;2.20;;;1.13;;
11677;SDS011;5895;41.950;24.372;2022-12-15T03:29:19;3.55;;;1.20;;
11677;SDS011;5895;41.950;24.372;2022-12-15T03:31:47;0.95;;;0.95;;
11677;SDS011;5895;41.950;24.372;2022-12-15T03:34:14;0.95;;;0.95;;
11677;SDS011;5895;41.950;24.372;2022-12-15T03:36:44;1.10;;;1.00;;
11677;SDS011;5895;41.950;24.372;2022-12-15T03:39:11;1.48;;;1.00;;
11677;SDS011;5895;41.950;24.372;2022-12-15T03:41:39;1.20;;;1.10;;
11677;SDS011;5895;41.950;24.372;2022-12-15T03:44:06;1.23;;;1.15;;
11677;SDS011;5895;41.950;24.372;2022-12-15T03:46:34;1.33;;;1.23;;
11677;SDS011;5895;41.950;24.372;2022-12-15T03:49:01;1.17;;;1.10;;
11677;SDS011;5895;41.950;24.372;2022-12-15T03:51:29;2.67;;;1.40;;
11677;SDS011;5895;41.950;24.372;2022-12-15T03:53:58;1.38;;;1.23;;
11677;SDS011;5895;41.950;24.372;2022-12-15T03:56:25;1.40;;;1.30;;
11677;SDS011;5895;41.950;24.372;2022-12-15T03:58:53;1.10;;;1.00;;
11677;SDS011;5895;41.950;24.372;2022-12-15T04:01:22;1.35;;;1.25;;
11677;SDS011;5895;41.950;24.372;2022-12-15T04:03:54;1.10;;;1.10;;
11677;SDS011;5895;41.950;24.372;2022-12-15T04:06:21;1.17;;;1.15;;
11677;SDS011;5895;41.950;24.372;2022-12-15T04:08:49;2.30;;;1.30;;
11677;SDS011;5895;41.950;24.372;2022-12-15T04:11:18;1.38;;;1.27;;
11677;SDS011;5895;41.950;24.372;2022-12-15T04:13:46;1.60;;;1.50;;
11677;SDS011;5895;41.950;24.372;2022-12-15T04:16:13;1.50;;;1.40;;
11677;SDS011;5895;41.950;24.372;2022-12-15T04:18:41;1.52;;;1.42;;
11677;SDS011;5895;41.950;24.372;2022-12-15T04:21:08;1.50;;;1.40;;
11677;SDS011;5895;41.950;24.372;2022-12-15T04:23:34;1.40;;;1.30;;
11677;SDS011;5895;41.950;24.372;2022-12-15T04:26:02;1.30;;;1.20;;
11677;SDS011;5895;41.950;24.372;2022-12-15T04:28:49;1.20;;;1.10;;
11677;SDS011;5895;41.950;24.372;2022-12-15T04:31:33;1.20;;;1.20;;
11677;SDS011;5895;41.950;24.372;2022-12-15T04:34:19;1.58;;;1.23;;
11677;SDS011;5895;41.950;24.372;2022-12-15T04:37:06;1.92;;;1.30;;
11677;SDS011;5895;41.950;24.372;2022-12-15T04:39:54;1.30;;;1.20;;
11677;SDS011;5895;41.950;24.372;2022-12-15T04:42:40;1.40;;;1.30;;
11677;SDS011;5895;41.950;24.372;2022-12-15T04:45:28;1.20;;;1.20;;
11677;SDS011;5895;41.950;24.372;2022-12-15T04:48:12;1.40;;;1.30;;
11677;SDS011;5895;41.950;24.372;2022-12-15T04:50:57;1.58;;;1.25;;
11677;SDS011;5895;41.950;24.372;2022-12-15T04:53:42;1.40;;;1.30;;
11677;SDS011;5895;41.950;24.372;2022-12-15T04:56:27;1.30;;;1.20;;
11677;SDS011;5895;41.950;24.372;2022-12-15T04:59:12;1.30;;;1.20;;
11677;SDS011;5895;41.950;24.372;2022-12-15T05:01:58;1.65;;;1.20;;
11677;SDS011;5895;41.950;24.372;2022-12-15T05:04:43;1.30;;;1.20;;
11677;SDS011;5895;41.950;24.372;2022-12-15T05:07:27;1.10;;;1.10;;
11677;SDS011;5895;41.950;24.372;2022-12-15T05:10:12;1.40;;;1.30;;
11677;SDS011;5895;41.950;24.372;2022-12-15T05:13:02;1.20;;;1.10;;
11677;SDS011;5895;41.950;24.372;2022-12-15T05:15:48;1.52;;;1.27;;
11677;SDS011;5895;41.950;24.372;2022-12-15T05:18:34;1.00;;;1.00;;
11677;SDS011;5895;41.950;24.372;2022-12-15T05:21:18;1.38;;;1.20;;
11677;SDS011;5895;41.950;24.372;2022-12-15T05:24:03;1.50;;;1.40;;
11677;SDS011;5895;41.950;24.372;2022-12-15T05:26:48;1.35;;;1.25;;
11677;SDS011;5895;41.950;24.372;2022-12-15T05:29:32;1.30;;;1.10;;
11677;SDS011;5895;41.950;24.372;2022-12-15T05:32:16;1.30;;;1.20;;
11677;SDS011;5895;41.950;24.372;2022-12-15T05:34:45;1.00;;;1.00;;
11677;SDS011;5895;41.950;24.372;2022-12-15T05:37:13;1.20;;;1.10;;
11677;SDS011;5895;41.950;24.372;2022-12-15T05:39:40;1.88;;;1.30;;
11677;SDS011;5895;41.950;24.372;2022-12-15T05:42:08;1.25;;;1.15;;
11677;SDS011;5895;41.950;24.372;2022-12-15T05:44:35;1.15;;;1.05;;
11677;SDS011;5895;41.950;24.372;2022-12-15T05:47:03;1.50;;;1.40;;
11677;SDS011;5895;41.950;24.372;2022-12-15T05:49:30;1.30;;;1.20;;
11677;SDS011;5895;41.950;24.372;2022-12-15T05:52:00;1.25;;;1.13;;
11677;SDS011;5895;41.950;24.372;2022-12-15T05:54:27;1.13;;;1.13;;
11677;SDS011;5895;41.950;24.372;2022-12-15T05:56:55;1.33;;;1.23;;
11677;SDS011;5895;41.950;24.372;2022-12-15T05:59:22;1.45;;;1.35;;
11677;SDS011;5895;41.950;24.372;2022-12-15T06:01:50;1.40;;;1.30;;
11677;SDS011;5895;41.950;24.372;2022-12-15T06:04:17;1.40;;;1.30;;
11677;SDS011;5895;41.950;24.372;2022-12-15T06:06:45;1.50;;;1.40;;
11677;SDS011;5895;41.950;24.372;2022-12-15T06:09:14;1.55;;;1.40;;
11677;SDS011;5895;41.950;24.372;2022-12-15T06:11:41;1.30;;;1.20;;
11677;SDS011;5895;41.950;24.372;2022-12-15T06:14:09;1.17;;;1.10;;
11677;SDS011;5895;41.950;24.372;2022-12-15T06:16:36;1.30;;;1.20;;
11677;SDS011;5895;41.950;24.372;2022-12-15T06:19:04;1.25;;;1.15;;
11677;SDS011;5895;41.950;24.372;2022-12-15T06:21:33;1.20;;;1.10;;
11677;SDS011;5895;41.950;24.372;2022-12-15T06:24:01;1.30;;;1.20;;
11677;SDS011;5895;41.950;24.372;2022-12-15T06:26:34;1.42;;;1.30;;
11677;SDS011;5895;41.950;24.372;2022-12-15T06:29:03;1.38;;;1.27;;
11677;SDS011;5895;41.950;24.372;2022-12-15T06:31:32;1.40;;;1.30;;
11677;SDS011;5895;41.950;24.372;2022-12-15T06:34:02;1.27;;;1.10;;
11677;SDS011;5895;41.950;24.372;2022-12-15T06:36:30;1.10;;;1.10;;
11677;SDS011;5895;41.950;24.372;2022-12-15T06:38:58;1.10;;;1.10;;
11677;SDS011;5895;41.950;24.372;2022-12-15T06:41:26;1.40;;;1.30;;
11677;SDS011;5895;41.950;24.372;2022-12-15T06:43:57;1.40;;;1.30;;
11677;SDS011;5895;41.950;24.372;2022-12-15T06:46:26;1.48;;;1.38;;
11677;SDS011;5895;41.950;24.372;2022-12-15T06:48:54;1.42;;;1.33;;
11677;SDS011;5895;41.950;24.372;2022-12-15T06:51:23;2.55;;;1.52;;
11677;SDS011;5895;41.950;24.372;2022-12-15T06:53:51;1.30;;;1.20;;
11677;SDS011;5895;41.950;24.372;2022-12-15T06:56:20;1.40;;;1.30;;
11677;SDS011;5895;41.950;24.372;2022-12-15T06:58:49;1.40;;;1.30;;
11677;SDS011;5895;41.950;24.372;2022-12-15T07:01:19;1.10;;;1.10;;
11677;SDS011;5895;41.950;24.372;2022-12-15T07:03:48;1.13;;;1.10;;
11677;SDS011;5895;41.950;24.372;2022-12-15T07:06:16;1.30;;;1.20;;
11677;SDS011;5895;41.950;24.372;2022-12-15T07:08:46;1.27;;;1.20;;
11677;SDS011;5895;41.950;24.372;2022-12-15T07:11:16;1.25;;;1.15;;
11677;SDS011;5895;41.950;24.372;2022-12-15T07:13:48;1.30;;;1.20;;
11677;SDS011;5895;41.950;24.372;2022-12-15T07:16:15;1.45;;;1.35;;
11677;SDS011;5895;41.950;24.372;2022-12-15T07:18:45;1.40;;;1.30;;
11677;SDS011;5895;41.950;24.372;2022-12-15T07:21:12;1.63;;;1.23;;
11677;SDS011;5895;41.950;24.372;2022-12-15T07:23:40;1.10;;;1.10;;
11677;SDS011;5895;41.950;24.372;2022-12-15T07:26:08;1.60;;;1.50;;
11677;SDS011;5895;41.950;24.372;2022-12-15T07:28:36;1.50;;;1.40;;
11677;SDS011;5895;41.950;24.372;2022-12-15T07:31:05;1.40;;;1.30;;
11677;SDS011;5895;41.950;24.372;2022-12-15T07:33:35;1.77;;;1.55;;
11677;SDS011;5895;41.950;24.372;2022-12-15T07:36:05;1.38;;;1.27;;
11677;SDS011;5895;41.950;24.372;2022-12-15T07:38:34;1.55;;;1.30;;
11677;SDS011;5895;41.950;24.372;2022-12-15T07:41:02;1.40;;;1.30;;
11677;SDS011;5895;41.950;24.372;2022-12-15T07:43:31;1.60;;;1.50;;
11677;SDS011;5895;41.950;24.372;2022-12-15T07:45:58;1.52;;;1.33;;
11677;SDS011;5895;41.950;24.372;2022-12-15T07:48:26;1.50;;;1.40;;
11677;SDS011;5895;41.950;24.372;2022-12-15T07:50:53;1.50;;;1.40;;
11677;SDS011;5895;41.950;24.372;2022-12-15T07:53:25;1.50;;;1.40;;
11677;SDS011;5895;41.950;24.372;2022-12-15T07:55:54;1.70;;;1.60;;
11677;SDS011;5895;41.950;24.372;2022-12-15T07:58:23;1.65;;;1.38;;
11677;SDS011;5895;41.950;24.372;2022-12-15T08:00:51;1.67;;;1.40;;
11677;SDS011;5895;41.950;24.372;2022-12-15T08:03:19;1.50;;;1.40;;
11677;SDS011;5895;41.950;24.372;2022-12-15T08:05:46;1.48;;;1.38;;
11677;SDS011;5895;41.950;24.372;2022-12-15T08:08:14;1.58;;;1.48;;
11677;SDS011;5895;41.950;24.372;2022-12-15T08:10:44;1.55;;;1.45;;
11677;SDS011;5895;41.950;24.372;2022-12-15T08:13:11;1.50;;;1.40;;
11677;SDS011;5895;41.950;24.372;2022-12-15T08:15:39;1.70;;;1.40;;
11677;SDS011;5895;41.950;24.372;2022-12-15T08:18:07;1.13;;;1.13;;
11677;SDS011;5895;41.950;24.372;2022-12-15T08:20:34;1.33;;;1.10;;
11677;SDS011;5895;41.950;24.372;2022-12-15T08:23:02;1.65;;;1.55;;
11677;SDS011;5895;41.950;24.372;2022-12-15T08:25:30;1.23;;;1.13;;
11677;SDS011;5895;41.950;24.372;2022-12-15T08:27:59;1.25;;;1.15;;
11677;SDS011;5895;41.950;24.372;2022-12-15T08:30:26;1.30;;;1.20;;
11677;SDS011;5895;41.950;24.372;2022-12-15T08:32:54;1.60;;;1.50;;
11677;SDS011;5895;41.950;24.372;2022-12-15T08:35:21;1.50;;;1.40;;
11677;SDS011;5895;41.950;24.372;2022-12-15T08:37:48;1.50;;;1.40;;
11677;SDS011;5895;41.950;24.372;2022-12-15T08:40:16;1.33;;;1.23;;
11677;SDS011;5895;41.950;24.372;2022-12-15T08:42:44;1.77;;;1.48;;
11677;SDS011;5895;41.950;24.372;2022-12-15T08:45:13;1.40;;;1.30;;
11677;SDS011;5895;41.950;24.372;2022-12-15T08:47:40;1.73;;;1.63;;
11677;SDS011;5895;41.950;24.372;2022-12-15T08:50:08;1.70;;;1.60;;
11677;SDS011;5895;41.950;24.372;2022-12-15T08:52:36;2.08;;;1.88;;
11677;SDS011;5895;41.950;24.372;2022-12-15T08:55:07;1.60;;;1.50;;
11677;SDS011;5895;41.950;24.372;2022-12-15T08:57:35;1.30;;;1.20;;
11677;SDS011;5895;41.950;24.372;2022-12-15T09:00:03;1.80;;;1.70;;
11677;SDS011;5895;41.950;24.372;2022-12-15T09:02:33;1.88;;;1.67;;
11677;SDS011;5895;41.950;24.372;2022-12-15T09:05:01;1.77;;;1.67;;
11677;SDS011;5895;41.950;24.372;2022-12-15T09:07:30;1.50;;;1.40;;
11677;SDS011;5895;41.950;24.372;2022-12-15T09:09:58;1.70;;;1.60;;
11677;SDS011;5895;41.950;24.372;2022-12-15T09:12:26;1.70;;;1.60;;
11677;SDS011;5895;41.950;24.372;2022-12-15T09:14:53;1.65;;;1.55;;
11677;SDS011;5895;41.950;24.372;2022-12-15T09:17:21;2.40;;;1.90;;
11677;SDS011;5895;41.950;24.372;2022-12-15T09:19:50;1.70;;;1.60;;
11677;SDS011;5895;41.950;24.372;2022-12-15T09:22:18;1.60;;;1.50;;
11677;SDS011;5895;41.950;24.372;2022-12-15T09:24:47;1.60;;;1.50;;
11677;SDS011;5895;41.950;24.372;2022-12-15T09:27:14;1.70;;;1.60;;
11677;SDS011;5895;41.950;24.372;2022-12-15T09:29:41;2.05;;;1.70;;
11677;SDS011;5895;41.950;24.372;2022-12-15T09:32:09;1.70;;;1.60;;
11677;SDS011;5895;41.950;24.372;2022-12-15T09:34:38;1.73;;;1.63;;
11677;SDS011;5895;41.950;24.372;2022-12-15T09:37:07;2.15;;;1.88;;
11677;SDS011;5895;41.950;24.372;2022-12-15T09:39:35;1.95;;;1.60;;
11677;SDS011;5895;41.950;24.372;2022-12-15T09:42:03;1.73;;;1.63;;
11677;SDS011;5895;41.950;24.372;2022-12-15T09:44:31;1.83;;;1.73;;
11677;SDS011;5895;41.950;24.372;2022-12-15T09:47:09;1.70;;;1.60;;
11677;SDS011;5895;41.950;24.372;2022-12-15T09:49:46;1.90;;;1.80;;
11677;SDS011;5895;41.950;24.372;2022-12-15T09:52:20;1.63;;;1.52;;
11677;SDS011;5895;41.950;24.372;2022-12-15T09:54:51;1.98;;;1.88;;
11677;SDS011;5895;41.950;24.372;2022-12-15T09:57:22;1.75;;;1.65;;
11677;SDS011;5895;41.950;24.372;2022-12-15T10:00:00;2.72;;;1.85;;
11677;SDS011;5895;41.950;24.372;2022-12-15T10:02:43;1.88;;;1.70;;
11677;SDS011;5895;41.950;24.372;2022-12-15T10:05:30;2.47;;;1.80;;
11677;SDS011;5895;41.950;24.372;2022-12-15T10:08:09;1.80;;;1.70;;
11677;SDS011;5895;41.950;24.372;2022-12-15T10:10:39;2.00;;;1.80;;
11677;SDS011;5895;41.950;24.372;2022-12-15T10:13:09;1.92;;;1.83;;
11677;SDS011;5895;41.950;24.372;2022-12-15T10:15:44;1.65;;;1.55;;
11677;SDS011;5895;41.950;24.372;2022-12-15T10:18:19;1.90;;;1.80;;
11677;SDS011;5895;41.950;24.372;2022-12-15T10:20:50;2.03;;;1.83;;
11677;SDS011;5895;41.950;24.372;2022-12-15T10:23:21;1.65;;;1.55;;
11677;SDS011;5895;41.950;24.372;2022-12-15T10:25:53;2.10;;;1.80;;
11677;SDS011;5895;41.950;24.372;2022-12-15T10:28:42;1.77;;;1.67;;
11677;SDS011;5895;41.950;24.372;2022-12-15T10:31:18;1.70;;;1.60;;
11677;SDS011;5895;41.950;24.372;2022-12-15T10:33:52;1.70;;;1.60;;
11677;SDS011;5895;41.950;24.372;2022-12-15T10:36:23;1.77;;;1.67;;
11677;SDS011;5895;41.950;24.372;2022-12-15T10:38:52;2.67;;;1.95;;
11677;SDS011;5895;41.950;24.372;2022-12-15T10:41:20;1.70;;;1.60;;
11677;SDS011;5895;41.950;24.372;2022-12-15T10:43:51;1.70;;;1.60;;
11677;SDS011;5895;41.950;24.372;2022-12-15T10:46:21;1.60;;;1.50;;
11677;SDS011;5895;41.950;24.372;2022-12-15T10:48:50;3.03;;;2.00;;
11677;SDS011;5895;41.950;24.372;2022-12-15T10:51:20;2.00;;;1.80;;
11677;SDS011;5895;41.950;24.372;2022-12-15T10:53:52;1.90;;;1.80;;
11677;SDS011;5895;41.950;24.372;2022-12-15T10:56:29;1.75;;;1.65;;
11677;SDS011;5895;41.950;24.372;2022-12-15T10:58:59;1.67;;;1.58;;
11677;SDS011;5895;41.950;24.372;2022-12-15T11:01:29;1.77;;;1.67;;
11677;SDS011;5895;41.950;24.372;2022-12-15T11:03:58;1.83;;;1.73;;
11677;SDS011;5895;41.950;24.372;2022-12-15T11:06:26;3.58;;;1.90;;
11677;SDS011;5895;41.950;24.372;2022-12-15T11:11:51;2.20;;;2.00;;
11677;SDS011;5895;41.950;24.372;2022-12-15T11:14:45;1.83;;;1.73;;
11677;SDS011;5895;41.950;24.372;2022-12-15T11:17:15;2.03;;;1.92;;
11677;SDS011;5895;41.950;24.372;2022-12-15T11:19:46;2.10;;;1.90;;
11677;SDS011;5895;41.950;24.372;2022-12-15T11:22:19;2.00;;;1.90;;
11677;SDS011;5895;41.950;24.372;2022-12-15T11:24:56;2.70;;;1.85;;
11677;SDS011;5895;41.950;24.372;2022-12-15T11:27:29;2.13;;;2.00;;
11677;SDS011;5895;41.950;24.372;2022-12-15T11:30:00;1.92;;;1.83;;
11677;SDS011;5895;41.950;24.372;2022-12-15T11:32:37;1.83;;;1.73;;
11677;SDS011;5895;41.950;24.372;2022-12-15T11:35:10;1.90;;;1.80;;
11677;SDS011;5895;41.950;24.372;2022-12-15T11:37:39;1.90;;;1.80;;
11677;SDS011;5895;41.950;24.372;2022-12-15T11:48:49;2.00;;;1.90;;
11677;SDS011;5895;41.950;24.372;2022-12-15T11:51:31;1.83;;;1.73;;
11677;SDS011;5895;41.950;24.372;2022-12-15T11:54:16;2.00;;;1.90;;
11677;SDS011;5895;41.950;24.372;2022-12-15T11:56:55;2.00;;;1.90;;
11677;SDS011;5895;41.950;24.372;2022-12-15T11:59:38;2.00;;;1.90;;
11677;SDS011;5895;41.950;24.372;2022-12-15T12:02:44;1.60;;;1.50;;
11677;SDS011;5895;41.950;24.372;2022-12-15T12:05:22;3.20;;;1.77;;
11677;SDS011;5895;41.950;24.372;2022-12-15T12:07:58;2.03;;;1.92;;
11677;SDS011;5895;41.950;24.372;2022-12-15T12:10:42;1.88;;;1.77;;
11677;SDS011;5895;41.950;24.372;2022-12-15T12:13:20;1.80;;;1.70;;
11677;SDS011;5895;41.950;24.372;2022-12-15T12:15:56;1.92;;;1.83;;
11677;SDS011;5895;41.950;24.372;2022-12-15T12:18:34;2.10;;;2.00;;
11677;SDS011;5895;41.950;24.372;2022-12-15T12:21:07;3.40;;;1.70;;
11677;SDS011;5895;41.950;24.372;2022-12-15T12:23:39;1.80;;;1.70;;
11677;SDS011;5895;41.950;24.372;2022-12-15T12:26:12;2.20;;;2.00;;
11677;SDS011;5895;41.950;24.372;2022-12-15T12:28:47;1.90;;;1.80;;
11677;SDS011;5895;41.950;24.372;2022-12-15T12:34:08;1.98;;;1.70;;
11677;SDS011;5895;41.950;24.372;2022-12-15T12:36:40;2.00;;;1.90;;
11677;SDS011;5895;41.950;24.372;2022-12-15T12:39:12;2.03;;;1.90;;
11677;SDS011;5895;41.950;24.372;2022-12-15T12:41:45;2.30;;;2.10;;
11677;SDS011;5895;41.950;24.372;2022-12-15T12:44:19;2.15;;;1.95;;
11677;SDS011;5895;41.950;24.372;2022-12-15T12:46:52;2.28;;;2.08;;
11677;SDS011;5895;41.950;24.372;2022-12-15T12:49:24;2.20;;;2.00;;
11677;SDS011;5895;41.950;24.372;2022-12-15T12:51:54;1.83;;;1.73;;
11677;SDS011;5895;41.950;24.372;2022-12-15T12:54:39;1.80;;;1.70;;
11677;SDS011;5895;41.950;24.372;2022-12-15T13:00:22;3.30;;;1.90;;
11677;SDS011;5895;41.950;24.372;2022-12-15T13:02:55;1.80;;;1.70;;
11677;SDS011;5895;41.950;24.372;2022-12-15T13:05:42;2.50;;;1.92;;
11677;SDS011;5895;41.950;24.372;2022-12-15T13:08:16;2.05;;;1.90;;
11677;SDS011;5895;41.950;24.372;2022-12-15T13:14:09;2.05;;;1.90;;
11677;SDS011;5895;41.950;24.372;2022-12-15T13:16:43;1.90;;;1.80;;
11677;SDS011;5895;41.950;24.372;2022-12-15T13:19:11;2.00;;;1.90;;
11677;SDS011;5895;41.950;24.372;2022-12-15T13:24:26;2.00;;;1.90;;
11677;SDS011;5895;41.950;24.372;2022-12-15T13:27:09;1.92;;;1.83;;
11677;SDS011;5895;41.950;24.372;2022-12-15T13:29:58;1.95;;;1.85;;
11677;SDS011;5895;41.950;24.372;2022-12-15T13:32:33;1.90;;;1.80;;
11677;SDS011;5895;41.950;24.372;2022-12-15T13:35:15;2.15;;;1.90;;
11677;SDS011;5895;41.950;24.372;2022-12-15T13:37:49;1.98;;;1.88;;
11677;SDS011;5895;41.950;24.372;2022-12-15T13:40:25;2.03;;;1.92;;
11677;SDS011;5895;41.950;24.372;2022-12-15T13:42:58;2.00;;;1.90;;
11677;SDS011;5895;41.950;24.372;2022-12-15T13:45:37;1.88;;;1.77;;
11677;SDS011;5895;41.950;24.372;2022-12-15T13:48:32;1.90;;;1.77;;
11677;SDS011;5895;41.950;24.372;2022-12-15T13:51:10;3.58;;;2.13;;
11677;SDS011;5895;41.950;24.372;2022-12-15T13:53:58;1.90;;;1.80;;
11677;SDS011;5895;41.950;24.372;2022-12-15T13:56:47;1.92;;;1.83;;
11677;SDS011;5895;41.950;24.372;2022-12-15T13:59:29;2.15;;;2.05;;
11677;SDS011;5895;41.950;24.372;2022-12-15T14:02:21;2.17;;;1.98;;
11677;SDS011;5895;41.950;24.372;2022-12-15T14:05:04;2.20;;;2.00;;
11677;SDS011;5895;41.950;24.372;2022-12-15T14:07:33;2.15;;;1.95;;
11677;SDS011;5895;41.950;24.372;2022-12-15T14:10:02;2.67;;;2.10;;
11677;SDS011;5895;41.950;24.372;2022-12-15T14:12:30;2.10;;;1.90;;
11677;SDS011;5895;41.950;24.372;2022-12-15T14:14:57;2.30;;;2.08;;
11677;SDS011;5895;41.950;24.372;2022-12-15T14:17:25;2.10;;;1.98;;
11677;SDS011;5895;41.950;24.372;2022-12-15T14:19:57;2.00;;;1.90;;
11677;SDS011;5895;41.950;24.372;2022-12-15T14:22:39;2.22;;;2.10;;
11677;SDS011;5895;41.950;24.372;2022-12-15T14:25:12;2.33;;;2.13;;
11677;SDS011;5895;41.950;24.372;2022-12-15T14:27:43;2.47;;;2.28;;
11677;SDS011;5895;41.950;24.372;2022-12-15T14:30:14;2.30;;;2.10;;
11677;SDS011;5895;41.950;24.372;2022-12-15T14:32:47;2.92;;;2.30;;
11677;SDS011;5895;41.950;24.372;2022-12-15T14:35:19;2.30;;;2.20;;
11677;SDS011;5895;41.950;24.372;2022-12-15T14:37:55;2.22;;;2.13;;
11677;SDS011;5895;41.950;24.372;2022-12-15T14:40:24;2.22;;;2.03;;
11677;SDS011;5895;41.950;24.372;2022-12-15T14:42:51;2.45;;;2.33;;
11677;SDS011;5895;41.950;24.372;2022-12-15T14:45:20;3.30;;;2.20;;
11677;SDS011;5895;41.950;24.372;2022-12-15T14:47:52;2.22;;;2.03;;
11677;SDS011;5895;41.950;24.372;2022-12-15T14:50:22;2.22;;;2.10;;
11677;SDS011;5895;41.950;24.372;2022-12-15T14:52:52;2.65;;;2.15;;
11677;SDS011;5895;41.950;24.372;2022-12-15T14:55:26;2.20;;;2.10;;
11677;SDS011;5895;41.950;24.372;2022-12-15T14:57:57;2.40;;;2.20;;
11677;SDS011;5895;41.950;24.372;2022-12-15T15:00:26;2.42;;;2.22;;
11677;SDS011;5895;41.950;24.372;2022-12-15T15:03:14;2.53;;;2.30;;
11677;SDS011;5895;41.950;24.372;2022-12-15T15:05:43;3.17;;;2.35;;
11677;SDS011;5895;41.950;24.372;2022-12-15T15:08:14;2.60;;;2.40;;
11677;SDS011;5895;41.950;24.372;2022-12-15T15:10:47;2.53;;;2.33;;
11677;SDS011;5895;41.950;24.372;2022-12-15T15:13:16;2.67;;;2.20;;
11677;SDS011;5895;41.950;24.372;2022-12-15T15:15:50;2.08;;;1.95;;
11677;SDS011;5895;41.950;24.372;2022-12-15T15:18:20;2.70;;;2.50;;
11677;SDS011;5895;41.950;24.372;2022-12-15T15:20:53;2.50;;;2.30;;
11677;SDS011;5895;41.950;24.372;2022-12-15T15:23:24;2.53;;;2.33;;
11677;SDS011;5895;41.950;24.372;2022-12-15T15:25:52;5.47;;;4.95;;
11677;SDS011;5895;41.950;24.372;2022-12-15T15:28:22;3.72;;;3.35;;
11677;SDS011;5895;41.950;24.372;2022-12-15T15:30:51;9.80;;;8.80;;
11677;SDS011;5895;41.950;24.372;2022-12-15T15:33:20;12.82;;;11.50;;
11677;SDS011;5895;41.950;24.372;2022-12-15T15:35:48;34.25;;;26.13;;
11677;SDS011;5895;41.950;24.372;2022-12-15T15:38:22;16.70;;;14.85;;
11677;SDS011;5895;41.950;24.372;2022-12-15T15:40:55;17.67;;;15.80;;
11677;SDS011;5895;41.950;24.372;2022-12-15T15:43:24;26.63;;;20.83;;
11677;SDS011;5895;41.950;24.372;2022-12-15T15:45:54;16.58;;;14.80;;
11677;SDS011;5895;41.950;24.372;2022-12-15T15:48:27;16.58;;;13.50;;
11677;SDS011;5895;41.950;24.372;2022-12-15T15:50:58;14.27;;;12.88;;
11677;SDS011;5895;41.950;24.372;2022-12-15T15:53:28;17.08;;;13.68;;